Wendy C — WYB6131 — position and weather

sailwx.info

Track history (hours):
 
Tides and Currents Weather Stations Pressure Air Temp Water Temp Dewpoint Dewpoint Depression Visibility Wind Speed Wind Dir Waves Ship Positions

Wendy C

Owner: Harbor Towing & Fleeting, Inc., Metairie, LA. More information available from US FCC via Universal Licensing System and Coast Guard Vessel Documentation Center.

Last reported at 2016-Jul-24 06:33 UTC. Time now 2016-Jul-24 06:50 UTC.
Position N 29°60' W 089°59'.

Length 19 m; draft 3 m.

Type: Towing. MMSI: 366160126.

Date/timePositionNaut miles runAvg speedWind from/ knotsBaromVisibWave heightAir tempDewpointWater temp
2016-Jul-24 06:33N 29°60' W 089°59'5 2.1
2016-Jul-24 04:06N 30°01' W 089°53'4 6.8
2016-Jul-24 03:33N 30°00' W 089°58'4 4.1
2016-Jul-24 02:33N 29°58' W 090°02'0 0.3
2016-Jul-24 01:33N 29°58' W 090°02'2 1.7
2016-Jul-24 00:33N 29°56' W 090°00'0 0.3
2016-Jul-23 23:33N 29°56' W 090°00'2 2.0
2016-Jul-23 22:33N 29°55' W 089°58'1 1.2
2016-Jul-23 21:33N 29°54' W 089°59'0 0.2
2016-Jul-23 20:33N 29°54' W 089°59'2 1.7
2016-Jul-23 19:33N 29°55' W 089°58'3 2.6
2016-Jul-23 18:33N 29°56' W 090°00'0 0.0
2016-Jul-23 17:33N 29°56' W 090°00'0 0.0
2016-Jul-23 16:33N 29°56' W 090°00'0 0.0
2016-Jul-23 15:33N 29°56' W 090°00'0 0.0
2016-Jul-23 14:33N 29°56' W 090°00'1 1.5
2016-Jul-23 13:33N 29°56' W 089°59'5 4.2
2016-Jul-23 12:27N 29°52' W 089°55'1 1.1
2016-Jul-23 11:33N 29°52' W 089°57'0 0.0
2016-Jul-23 10:33N 29°52' W 089°57'0 0.0
2016-Jul-23 09:33N 29°52' W 089°57'0 0.0
2016-Jul-23 08:33N 29°52' W 089°57'0 0.0
2016-Jul-23 07:33N 29°52' W 089°57'0 0.0
2016-Jul-23 06:26N 29°52' W 089°57'1 0.2
2016-Jul-23 02:33N 29°52' W 089°56'6 6.1
2016-Jul-23 01:33N 29°56' W 090°00'0 0.2
2016-Jul-23 00:33N 29°56' W 090°00'0 0.0
2016-Jul-22 23:33N 29°56' W 090°00'0 0.0
2016-Jul-22 22:33N 29°56' W 090°00'0 0.0
2016-Jul-22 21:33N 29°56' W 090°00'0 0.0
2016-Jul-22 20:33N 29°56' W 090°00'0 0.0
2016-Jul-22 19:33N 29°56' W 090°00'0 0.0
2016-Jul-22 18:33N 29°56' W 090°00'0 0.0
2016-Jul-22 17:33N 29°56' W 090°00'0 0.0
2016-Jul-22 16:33N 29°56' W 090°00'0 0.0
2016-Jul-22 15:33N 29°56' W 090°00'0 0.0
2016-Jul-22 14:33N 29°56' W 090°00'0 0.0
2016-Jul-22 13:33N 29°56' W 090°00'0 0.0
2016-Jul-22 12:33N 29°56' W 090°00'0 0.0
2016-Jul-22 11:33N 29°56' W 090°00'0 0.0
2016-Jul-22 10:33N 29°56' W 090°00'0 0.0
2016-Jul-22 09:33N 29°56' W 090°00'0 0.0
2016-Jul-22 08:33N 29°56' W 090°00'0 0.0
2016-Jul-22 07:33N 29°56' W 090°00'0 0.0
2016-Jul-22 05:33N 29°56' W 090°00'0 0.0
2016-Jul-22 04:33N 29°56' W 090°00'2 2.0
2016-Jul-22 03:33N 29°58' W 090°02'2 2.5
2016-Jul-22 02:33N 29°60' W 089°60'1 1.2
2016-Jul-22 01:33N 29°60' W 090°01'2 1.9
2016-Jul-22 00:33N 29°58' W 090°02'1 0.5
2016-Jul-21 23:33N 29°57' W 090°01'1 0.7
2016-Jul-21 22:33N 29°57' W 090°01'1 0.8
2016-Jul-21 21:33N 29°56' W 090°00'0 0.0
2016-Jul-21 20:33N 29°56' W 090°00'0 0.0
2016-Jul-21 19:33N 29°56' W 090°00'0 0.0
2016-Jul-21 18:33N 29°56' W 090°00'0 0.3
2016-Jul-21 17:33N 29°56' W 089°60'0 0.1
2016-Jul-21 16:32N 29°56' W 089°60'1 0.5
2016-Jul-21 15:33N 29°56' W 090°00'0 0.0
2016-Jul-21 14:33N 29°56' W 090°00'0 0.0
2016-Jul-21 13:33N 29°56' W 090°00'0 0.0
2016-Jul-21 12:33N 29°56' W 090°00'0 0.0
2016-Jul-21 11:33N 29°56' W 090°00'0 0.0
2016-Jul-21 10:33N 29°56' W 090°00'0 0.0
2016-Jul-21 09:33N 29°56' W 090°00'0 0.0
2016-Jul-21 08:33N 29°56' W 090°00'0 0.0
2016-Jul-21 07:33N 29°56' W 090°00'3 2.7
2016-Jul-21 06:33N 29°59' W 090°01'1 1.3
2016-Jul-21 05:33N 29°60' W 090°00'2 2.3
2016-Jul-21 04:33N 29°58' W 090°02'2 2.1
2016-Jul-21 03:33N 29°56' W 090°00'0 0.2
2016-Jul-21 02:33N 29°56' W 090°00'0 0.1
2016-Jul-21 01:34N 29°56' W 090°00'1 1.2
2016-Jul-21 00:33N 29°56' W 089°59'2 1.5
2016-Jul-20 23:33N 29°54' W 089°59'1 0.9
2016-Jul-20 22:33N 29°55' W 089°59'1 1.2
2016-Jul-20 21:32N 29°55' W 089°57'3 2.9
2016-Jul-20 20:33N 29°56' W 090°00'0 0.0
2016-Jul-20 19:33N 29°56' W 090°00'0 0.0
2016-Jul-20 18:33N 29°56' W 090°00'0 0.0
2016-Jul-20 17:33N 29°56' W 090°00'0 0.0
2016-Jul-20 16:33N 29°56' W 090°00'0 0.0
2016-Jul-20 15:33N 29°56' W 090°00'2 2.2
2016-Jul-20 14:33N 29°58' W 090°02'1 0.8
2016-Jul-20 13:33N 29°58' W 090°02'0 0.4
2016-Jul-20 12:33N 29°58' W 090°02'0 0.0
2016-Jul-20 11:33N 29°58' W 090°02'1 0.5
2016-Jul-20 10:33N 29°59' W 090°01'2 2.5
2016-Jul-20 09:33N 29°56' W 090°01'2 1.7
2016-Jul-20 08:33N 29°56' W 089°59'1 0.8
2016-Jul-20 07:32N 29°55' W 089°58'1 1.1
2016-Jul-20 06:34N 29°55' W 089°59'1 0.7
2016-Jul-20 05:33N 29°55' W 089°58'1 0.9
2016-Jul-20 04:33N 29°56' W 089°59'0 0.0
2016-Jul-20 03:33N 29°56' W 089°59'1 0.9
2016-Jul-20 02:33N 29°55' W 089°59'1 1.3
2016-Jul-20 01:33N 29°56' W 089°59'1 1.0
2016-Jul-20 00:33N 29°56' W 090°00'0 0.0
2016-Jul-19 23:33N 29°56' W 090°00'0 0.0
2016-Jul-19 22:33N 29°56' W 090°00'0 0.0
2016-Jul-19 21:33N 29°56' W 090°00'0 0.0
2016-Jul-19 20:33N 29°56' W 090°00'0 0.0
2016-Jul-19 19:33N 29°56' W 090°00'0 0.0
2016-Jul-19 18:33N 29°56' W 090°00'0 0.0
2016-Jul-19 17:33N 29°56' W 090°00'0 0.0
2016-Jul-19 16:33N 29°56' W 090°00'0 0.0
2016-Jul-19 15:33N 29°56' W 090°00'2 1.9
2016-Jul-19 14:33N 29°58' W 090°02'1 1.0
2016-Jul-19 13:33N 29°59' W 090°01'1 0.8
2016-Jul-19 12:32N 29°60' W 090°01'0 0.0
2016-Jul-19 11:33N 29°60' W 090°01'0 0.4
2016-Jul-19 10:33N 29°60' W 090°00'2 2.1
2016-Jul-19 09:33N 29°58' W 090°02'1 1.1
2016-Jul-19 08:33N 29°57' W 090°01'1 1.0
2016-Jul-19 07:33N 29°56' W 090°00'0 0.1
2016-Jul-19 04:33N 29°56' W 090°00'0 0.2
2016-Jul-19 03:33N 29°56' W 089°60'1 0.5
2016-Jul-19 02:33N 29°56' W 090°00'0 0.0
2016-Jul-19 01:33N 29°56' W 090°00'0 0.0
2016-Jul-19 00:33N 29°56' W 090°00'2 2.0
2016-Jul-18 23:33N 29°58' W 090°02'2 1.5
2016-Jul-18 22:33N 29°59' W 090°01'0 0.3
2016-Jul-18 21:33N 29°60' W 090°01'0 0.4
2016-Jul-18 20:33N 29°60' W 090°00'2 1.6
2016-Jul-18 19:33N 29°58' W 090°01'2 2.2
2016-Jul-18 18:33N 29°57' W 090°00'0 0.3
2016-Jul-18 17:33N 29°56' W 090°00'0 0.1
2016-Jul-18 16:33N 29°56' W 090°00'0 0.3
2016-Jul-18 15:33N 29°56' W 090°01'0 0.2
2016-Jul-18 14:33N 29°56' W 090°00'0 0.0
2016-Jul-18 13:33N 29°56' W 090°00'1 0.1
2016-Jul-18 04:33N 29°56' W 089°59'1 0.9
2016-Jul-18 03:33N 29°56' W 090°00'0 0.0
2016-Jul-18 02:33N 29°56' W 090°00'0 0.0
2016-Jul-18 01:33N 29°56' W 090°00'0 0.0
2016-Jul-18 00:33N 29°56' W 090°00'0 0.0
2016-Jul-17 23:33N 29°56' W 090°00'2 2.0
2016-Jul-17 22:33N 29°58' W 090°02'0 0.4
2016-Jul-17 21:33N 29°58' W 090°01'2 1.7
2016-Jul-17 20:33N 29°60' W 090°01'2 2.2
2016-Jul-17 19:33N 29°58' W 090°02'2 1.9
2016-Jul-17 18:33N 29°56' W 090°00'0 0.0
2016-Jul-17 17:33N 29°56' W 090°00'1 0.6
2016-Jul-17 16:33N 29°57' W 090°01'3 3.0
2016-Jul-17 15:33N 29°60' W 090°01'7 6.5
2016-Jul-17 14:33N 30°01' W 089°53'0 0.0
2016-Jul-17 13:33N 30°01' W 089°53'3 3.5
2016-Jul-17 12:33N 30°00' W 089°57'4 4.3
2016-Jul-17 11:33N 29°58' W 090°02'1 0.8
2016-Jul-17 10:33N 29°57' W 090°01'1 1.2
2016-Jul-17 09:33N 29°56' W 090°00'0 0.0
2016-Jul-17 08:33N 29°56' W 090°00'0 0.0
2016-Jul-17 07:33N 29°56' W 090°00'0 0.0
2016-Jul-17 06:33N 29°56' W 090°00'0 0.0
2016-Jul-17 04:33N 29°56' W 090°00'0 0.0
2016-Jul-17 03:33N 29°56' W 090°00'0 0.0
2016-Jul-17 02:33N 29°56' W 090°00'0 0.0
2016-Jul-17 01:33N 29°56' W 090°00'2 2.0
2016-Jul-17 00:33N 29°58' W 090°02'0 0.1
2016-Jul-16 23:33N 29°58' W 090°02'2 2.0
2016-Jul-16 22:30N 29°60' W 090°00'1 1.4
2016-Jul-16 21:33N 29°59' W 090°01'1 1.0
2016-Jul-16 20:33N 29°58' W 090°02'1 0.8
2016-Jul-16 19:33N 29°57' W 090°01'1 1.0
2016-Jul-16 18:33N 29°56' W 090°00'0 0.0
2016-Jul-16 17:33N 29°56' W 090°00'0 0.0
2016-Jul-16 16:33N 29°56' W 090°00'0 0.0
2016-Jul-16 15:33N 29°56' W 090°00'2 1.8
2016-Jul-16 14:33N 29°57' W 090°02'0 0.3
2016-Jul-16 13:33N 29°57' W 090°02'1 0.7
2016-Jul-16 12:33N 29°58' W 090°02'0 0.3
2016-Jul-16 11:33N 29°58' W 090°01'2 2.3
2016-Jul-16 10:33N 29°56' W 090°00'1 0.6
2016-Jul-16 09:33N 29°56' W 089°60'1 0.9
2016-Jul-16 08:33N 29°56' W 089°59'1 0.8
2016-Jul-16 07:33N 29°55' W 089°58'0 0.3
2016-Jul-16 06:33N 29°55' W 089°59'2 1.1
2016-Jul-16 04:33N 29°56' W 090°00'2 1.5
2016-Jul-16 03:33N 29°56' W 089°59'1 0.8
2016-Jul-16 02:33N 29°55' W 089°58'0 0.1
2016-Jul-16 01:33N 29°55' W 089°59'2 2.1
2016-Jul-16 00:33N 29°56' W 090°00'0 0.1
2016-Jul-15 23:33N 29°56' W 090°00'0 0.0
2016-Jul-15 22:33N 29°56' W 090°00'0 0.0
2016-Jul-15 21:33N 29°56' W 090°00'0 0.0
2016-Jul-15 20:33N 29°56' W 090°00'0 0.0
2016-Jul-15 19:33N 29°56' W 090°00'0 0.0
2016-Jul-15 18:33N 29°56' W 090°00'0 0.0
2016-Jul-15 17:33N 29°56' W 090°00'0 0.0
2016-Jul-15 16:33N 29°56' W 090°00'2 2.3
2016-Jul-15 15:32N 29°55' W 089°58'0 0.2
2016-Jul-15 14:33N 29°55' W 089°58'2 1.8
2016-Jul-15 13:33N 29°54' W 089°60'2 2.0
2016-Jul-15 12:33N 29°55' W 089°58'2 2.2
2016-Jul-15 11:33N 29°56' W 090°00'0 0.0
2016-Jul-15 10:33N 29°56' W 090°00'0 0.0
2016-Jul-15 09:33N 29°56' W 090°00'0 0.0
2016-Jul-15 08:33N 29°56' W 090°00'0 0.0
2016-Jul-15 07:33N 29°56' W 090°00'0 0.0
2016-Jul-15 06:33N 29°56' W 090°00'2 2.0
2016-Jul-15 05:33N 29°58' W 090°02'2 2.1
2016-Jul-15 04:33N 29°60' W 090°00'0 0.0
2016-Jul-15 03:33N 29°60' W 090°00'2 2.2
2016-Jul-15 02:33N 29°58' W 090°02'0 0.3
2016-Jul-15 01:33N 29°58' W 090°02'0 0.0
2016-Jul-15 00:33N 29°58' W 090°02'2 2.0
2016-Jul-14 23:33N 29°56' W 090°00'0 0.2
2016-Jul-14 22:33N 29°56' W 090°00'0 0.0
2016-Jul-14 21:33N 29°56' W 090°00'0 0.0
2016-Jul-14 20:33N 29°56' W 090°00'0 0.0
2016-Jul-14 19:33N 29°56' W 090°00'0 0.0
2016-Jul-14 18:33N 29°56' W 090°00'2 2.1
2016-Jul-14 17:33N 29°55' W 089°58'4 3.6
2016-Jul-14 16:23N 29°52' W 090°01'0 0.2
2016-Jul-14 15:32N 29°52' W 090°01'0 0.1
2016-Jul-14 14:33N 29°52' W 090°01'2 2.3
2016-Jul-14 13:33N 29°54' W 089°60'3 2.5
2016-Jul-14 12:33N 29°56' W 090°00'0 0.0
2016-Jul-14 11:33N 29°56' W 090°00'0 0.0
2016-Jul-14 10:33N 29°56' W 090°00'0 0.0
2016-Jul-14 09:33N 29°56' W 090°00'0 0.0
2016-Jul-14 08:33N 29°56' W 090°00'0 0.0
2016-Jul-14 07:33N 29°56' W 090°00'0 0.0
2016-Jul-14 06:33N 29°56' W 090°00'  
Track history (hours):
 
Tides and Currents Weather Stations Pressure Air Temp Water Temp Dewpoint Dewpoint Depression Visibility Wind Speed Wind Dir Waves Ship Positions

Wendy C

Owner: Harbor Towing & Fleeting, Inc., Metairie, LA. More information available from US FCC via Universal Licensing System and Coast Guard Vessel Documentation Center.

Last reported at 2016-Jul-24 06:33 UTC. Time now 2016-Jul-24 06:50 UTC.
Position N 29°60' W 089°59'.

Length 19 m; draft 3 m.

Type: Towing. MMSI: 366160126.

Date/timePositionNaut miles runAvg speedWind from/ knotsBaromVisibWave heightAir tempDewpointWater temp
2016-Jul-24 06:33N 29°60' W 089°59'5 2.1
2016-Jul-24 04:06N 30°01' W 089°53'4 6.8
2016-Jul-24 03:33N 30°00' W 089°58'4 4.1
2016-Jul-24 02:33N 29°58' W 090°02'0 0.3
2016-Jul-24 01:33N 29°58' W 090°02'2 1.7
2016-Jul-24 00:33N 29°56' W 090°00'0 0.3
2016-Jul-23 23:33N 29°56' W 090°00'2 2.0
2016-Jul-23 22:33N 29°55' W 089°58'1 1.2
2016-Jul-23 21:33N 29°54' W 089°59'0 0.2
2016-Jul-23 20:33N 29°54' W 089°59'2 1.7
2016-Jul-23 19:33N 29°55' W 089°58'3 2.6
2016-Jul-23 18:33N 29°56' W 090°00'0 0.0
2016-Jul-23 17:33N 29°56' W 090°00'0 0.0
2016-Jul-23 16:33N 29°56' W 090°00'0 0.0
2016-Jul-23 15:33N 29°56' W 090°00'0 0.0
2016-Jul-23 14:33N 29°56' W 090°00'1 1.5
2016-Jul-23 13:33N 29°56' W 089°59'5 4.2
2016-Jul-23 12:27N 29°52' W 089°55'1 1.1
2016-Jul-23 11:33N 29°52' W 089°57'0 0.0
2016-Jul-23 10:33N 29°52' W 089°57'0 0.0
2016-Jul-23 09:33N 29°52' W 089°57'0 0.0
2016-Jul-23 08:33N 29°52' W 089°57'0 0.0
2016-Jul-23 07:33N 29°52' W 089°57'0 0.0
2016-Jul-23 06:26N 29°52' W 089°57'1 0.2
2016-Jul-23 02:33N 29°52' W 089°56'6 6.1
2016-Jul-23 01:33N 29°56' W 090°00'0 0.2
2016-Jul-23 00:33N 29°56' W 090°00'0 0.0
2016-Jul-22 23:33N 29°56' W 090°00'0 0.0
2016-Jul-22 22:33N 29°56' W 090°00'0 0.0
2016-Jul-22 21:33N 29°56' W 090°00'0 0.0
2016-Jul-22 20:33N 29°56' W 090°00'0 0.0
2016-Jul-22 19:33N 29°56' W 090°00'0 0.0
2016-Jul-22 18:33N 29°56' W 090°00'0 0.0
2016-Jul-22 17:33N 29°56' W 090°00'0 0.0
2016-Jul-22 16:33N 29°56' W 090°00'0 0.0
2016-Jul-22 15:33N 29°56' W 090°00'0 0.0
2016-Jul-22 14:33N 29°56' W 090°00'0 0.0
2016-Jul-22 13:33N 29°56' W 090°00'0 0.0
2016-Jul-22 12:33N 29°56' W 090°00'0 0.0
2016-Jul-22 11:33N 29°56' W 090°00'0 0.0
2016-Jul-22 10:33N 29°56' W 090°00'0 0.0
2016-Jul-22 09:33N 29°56' W 090°00'0 0.0
2016-Jul-22 08:33N 29°56' W 090°00'0 0.0
2016-Jul-22 07:33N 29°56' W 090°00'0 0.0
2016-Jul-22 05:33N 29°56' W 090°00'0 0.0
2016-Jul-22 04:33N 29°56' W 090°00'2 2.0
2016-Jul-22 03:33N 29°58' W 090°02'2 2.5
2016-Jul-22 02:33N 29°60' W 089°60'1 1.2
2016-Jul-22 01:33N 29°60' W 090°01'2 1.9
2016-Jul-22 00:33N 29°58' W 090°02'1 0.5
2016-Jul-21 23:33N 29°57' W 090°01'1 0.7
2016-Jul-21 22:33N 29°57' W 090°01'1 0.8
2016-Jul-21 21:33N 29°56' W 090°00'0 0.0
2016-Jul-21 20:33N 29°56' W 090°00'0 0.0
2016-Jul-21 19:33N 29°56' W 090°00'0 0.0
2016-Jul-21 18:33N 29°56' W 090°00'0 0.3
2016-Jul-21 17:33N 29°56' W 089°60'0 0.1
2016-Jul-21 16:32N 29°56' W 089°60'1 0.5
2016-Jul-21 15:33N 29°56' W 090°00'0 0.0
2016-Jul-21 14:33N 29°56' W 090°00'0 0.0
2016-Jul-21 13:33N 29°56' W 090°00'0 0.0
2016-Jul-21 12:33N 29°56' W 090°00'0 0.0
2016-Jul-21 11:33N 29°56' W 090°00'0 0.0
2016-Jul-21 10:33N 29°56' W 090°00'0 0.0
2016-Jul-21 09:33N 29°56' W 090°00'0 0.0
2016-Jul-21 08:33N 29°56' W 090°00'0 0.0
2016-Jul-21 07:33N 29°56' W 090°00'3 2.7
2016-Jul-21 06:33N 29°59' W 090°01'1 1.3
2016-Jul-21 05:33N 29°60' W 090°00'2 2.3
2016-Jul-21 04:33N 29°58' W 090°02'2 2.1
2016-Jul-21 03:33N 29°56' W 090°00'0 0.2
2016-Jul-21 02:33N 29°56' W 090°00'0 0.1
2016-Jul-21 01:34N 29°56' W 090°00'1 1.2
2016-Jul-21 00:33N 29°56' W 089°59'2 1.5
2016-Jul-20 23:33N 29°54' W 089°59'1 0.9
2016-Jul-20 22:33N 29°55' W 089°59'1 1.2
2016-Jul-20 21:32N 29°55' W 089°57'3 2.9
2016-Jul-20 20:33N 29°56' W 090°00'0 0.0
2016-Jul-20 19:33N 29°56' W 090°00'0 0.0
2016-Jul-20 18:33N 29°56' W 090°00'0 0.0
2016-Jul-20 17:33N 29°56' W 090°00'0 0.0
2016-Jul-20 16:33N 29°56' W 090°00'0 0.0
2016-Jul-20 15:33N 29°56' W 090°00'2 2.2
2016-Jul-20 14:33N 29°58' W 090°02'1 0.8
2016-Jul-20 13:33N 29°58' W 090°02'0 0.4
2016-Jul-20 12:33N 29°58' W 090°02'0 0.0
2016-Jul-20 11:33N 29°58' W 090°02'1 0.5
2016-Jul-20 10:33N 29°59' W 090°01'2 2.5
2016-Jul-20 09:33N 29°56' W 090°01'2 1.7
2016-Jul-20 08:33N 29°56' W 089°59'1 0.8
2016-Jul-20 07:32N 29°55' W 089°58'1 1.1
2016-Jul-20 06:34N 29°55' W 089°59'1 0.7
2016-Jul-20 05:33N 29°55' W 089°58'1 0.9
2016-Jul-20 04:33N 29°56' W 089°59'0 0.0
2016-Jul-20 03:33N 29°56' W 089°59'1 0.9
2016-Jul-20 02:33N 29°55' W 089°59'1 1.3
2016-Jul-20 01:33N 29°56' W 089°59'1 1.0
2016-Jul-20 00:33N 29°56' W 090°00'0 0.0
2016-Jul-19 23:33N 29°56' W 090°00'0 0.0
2016-Jul-19 22:33N 29°56' W 090°00'0 0.0
2016-Jul-19 21:33N 29°56' W 090°00'0 0.0
2016-Jul-19 20:33N 29°56' W 090°00'0 0.0
2016-Jul-19 19:33N 29°56' W 090°00'0 0.0
2016-Jul-19 18:33N 29°56' W 090°00'0 0.0
2016-Jul-19 17:33N 29°56' W 090°00'0 0.0
2016-Jul-19 16:33N 29°56' W 090°00'0 0.0
2016-Jul-19 15:33N 29°56' W 090°00'2 1.9
2016-Jul-19 14:33N 29°58' W 090°02'1 1.0
2016-Jul-19 13:33N 29°59' W 090°01'1 0.8
2016-Jul-19 12:32N 29°60' W 090°01'0 0.0
2016-Jul-19 11:33N 29°60' W 090°01'0 0.4
2016-Jul-19 10:33N 29°60' W 090°00'2 2.1
2016-Jul-19 09:33N 29°58' W 090°02'1 1.1
2016-Jul-19 08:33N 29°57' W 090°01'1 1.0
2016-Jul-19 07:33N 29°56' W 090°00'0 0.1
2016-Jul-19 04:33N 29°56' W 090°00'0 0.2
2016-Jul-19 03:33N 29°56' W 089°60'1 0.5
2016-Jul-19 02:33N 29°56' W 090°00'0 0.0
2016-Jul-19 01:33N 29°56' W 090°00'0 0.0
2016-Jul-19 00:33N 29°56' W 090°00'2 2.0
2016-Jul-18 23:33N 29°58' W 090°02'2 1.5
2016-Jul-18 22:33N 29°59' W 090°01'0 0.3
2016-Jul-18 21:33N 29°60' W 090°01'0 0.4
2016-Jul-18 20:33N 29°60' W 090°00'2 1.6
2016-Jul-18 19:33N 29°58' W 090°01'2 2.2
2016-Jul-18 18:33N 29°57' W 090°00'0 0.3
2016-Jul-18 17:33N 29°56' W 090°00'0 0.1
2016-Jul-18 16:33N 29°56' W 090°00'0 0.3
2016-Jul-18 15:33N 29°56' W 090°01'0 0.2
2016-Jul-18 14:33N 29°56' W 090°00'0 0.0
2016-Jul-18 13:33N 29°56' W 090°00'1 0.1
2016-Jul-18 04:33N 29°56' W 089°59'1 0.9
2016-Jul-18 03:33N 29°56' W 090°00'0 0.0
2016-Jul-18 02:33N 29°56' W 090°00'0 0.0
2016-Jul-18 01:33N 29°56' W 090°00'0 0.0
2016-Jul-18 00:33N 29°56' W 090°00'0 0.0
2016-Jul-17 23:33N 29°56' W 090°00'2 2.0
2016-Jul-17 22:33N 29°58' W 090°02'0 0.4
2016-Jul-17 21:33N 29°58' W 090°01'2 1.7
2016-Jul-17 20:33N 29°60' W 090°01'2 2.2
2016-Jul-17 19:33N 29°58' W 090°02'2 1.9
2016-Jul-17 18:33N 29°56' W 090°00'0 0.0
2016-Jul-17 17:33N 29°56' W 090°00'1 0.6
2016-Jul-17 16:33N 29°57' W 090°01'3 3.0
2016-Jul-17 15:33N 29°60' W 090°01'7 6.5
2016-Jul-17 14:33N 30°01' W 089°53'0 0.0
2016-Jul-17 13:33N 30°01' W 089°53'3 3.5
2016-Jul-17 12:33N 30°00' W 089°57'4 4.3
2016-Jul-17 11:33N 29°58' W 090°02'1 0.8
2016-Jul-17 10:33N 29°57' W 090°01'1 1.2
2016-Jul-17 09:33N 29°56' W 090°00'0 0.0
2016-Jul-17 08:33N 29°56' W 090°00'0 0.0
2016-Jul-17 07:33N 29°56' W 090°00'0 0.0
2016-Jul-17 06:33N 29°56' W 090°00'0 0.0
2016-Jul-17 04:33N 29°56' W 090°00'0 0.0
2016-Jul-17 03:33N 29°56' W 090°00'0 0.0
2016-Jul-17 02:33N 29°56' W 090°00'0 0.0
2016-Jul-17 01:33N 29°56' W 090°00'2 2.0
2016-Jul-17 00:33N 29°58' W 090°02'0 0.1
2016-Jul-16 23:33N 29°58' W 090°02'2 2.0
2016-Jul-16 22:30N 29°60' W 090°00'1 1.4
2016-Jul-16 21:33N 29°59' W 090°01'1 1.0
2016-Jul-16 20:33N 29°58' W 090°02'1 0.8
2016-Jul-16 19:33N 29°57' W 090°01'1 1.0
2016-Jul-16 18:33N 29°56' W 090°00'0 0.0
2016-Jul-16 17:33N 29°56' W 090°00'0 0.0
2016-Jul-16 16:33N 29°56' W 090°00'0 0.0
2016-Jul-16 15:33N 29°56' W 090°00'2 1.8
2016-Jul-16 14:33N 29°57' W 090°02'0 0.3
2016-Jul-16 13:33N 29°57' W 090°02'1 0.7
2016-Jul-16 12:33N 29°58' W 090°02'0 0.3
2016-Jul-16 11:33N 29°58' W 090°01'2 2.3
2016-Jul-16 10:33N 29°56' W 090°00'1 0.6
2016-Jul-16 09:33N 29°56' W 089°60'1 0.9
2016-Jul-16 08:33N 29°56' W 089°59'1 0.8
2016-Jul-16 07:33N 29°55' W 089°58'0 0.3
2016-Jul-16 06:33N 29°55' W 089°59'2 1.1
2016-Jul-16 04:33N 29°56' W 090°00'2 1.5
2016-Jul-16 03:33N 29°56' W 089°59'1 0.8
2016-Jul-16 02:33N 29°55' W 089°58'0 0.1
2016-Jul-16 01:33N 29°55' W 089°59'2 2.1
2016-Jul-16 00:33N 29°56' W 090°00'0 0.1
2016-Jul-15 23:33N 29°56' W 090°00'0 0.0
2016-Jul-15 22:33N 29°56' W 090°00'0 0.0
2016-Jul-15 21:33N 29°56' W 090°00'0 0.0
2016-Jul-15 20:33N 29°56' W 090°00'0 0.0
2016-Jul-15 19:33N 29°56' W 090°00'0 0.0
2016-Jul-15 18:33N 29°56' W 090°00'0 0.0
2016-Jul-15 17:33N 29°56' W 090°00'0 0.0
2016-Jul-15 16:33N 29°56' W 090°00'2 2.3
2016-Jul-15 15:32N 29°55' W 089°58'0 0.2
2016-Jul-15 14:33N 29°55' W 089°58'2 1.8
2016-Jul-15 13:33N 29°54' W 089°60'2 2.0
2016-Jul-15 12:33N 29°55' W 089°58'2 2.2
2016-Jul-15 11:33N 29°56' W 090°00'0 0.0
2016-Jul-15 10:33N 29°56' W 090°00'0 0.0
2016-Jul-15 09:33N 29°56' W 090°00'0 0.0
2016-Jul-15 08:33N 29°56' W 090°00'0 0.0
2016-Jul-15 07:33N 29°56' W 090°00'0 0.0
2016-Jul-15 06:33N 29°56' W 090°00'2 2.0
2016-Jul-15 05:33N 29°58' W 090°02'2 2.1
2016-Jul-15 04:33N 29°60' W 090°00'0 0.0
2016-Jul-15 03:33N 29°60' W 090°00'2 2.2
2016-Jul-15 02:33N 29°58' W 090°02'0 0.3
2016-Jul-15 01:33N 29°58' W 090°02'0 0.0
2016-Jul-15 00:33N 29°58' W 090°02'2 2.0
2016-Jul-14 23:33N 29°56' W 090°00'0 0.2
2016-Jul-14 22:33N 29°56' W 090°00'0 0.0
2016-Jul-14 21:33N 29°56' W 090°00'0 0.0
2016-Jul-14 20:33N 29°56' W 090°00'0 0.0
2016-Jul-14 19:33N 29°56' W 090°00'0 0.0
2016-Jul-14 18:33N 29°56' W 090°00'2 2.1
2016-Jul-14 17:33N 29°55' W 089°58'4 3.6
2016-Jul-14 16:23N 29°52' W 090°01'0 0.2
2016-Jul-14 15:32N 29°52' W 090°01'0 0.1
2016-Jul-14 14:33N 29°52' W 090°01'2 2.3
2016-Jul-14 13:33N 29°54' W 089°60'3 2.5
2016-Jul-14 12:33N 29°56' W 090°00'0 0.0
2016-Jul-14 11:33N 29°56' W 090°00'0 0.0
2016-Jul-14 10:33N 29°56' W 090°00'0 0.0
2016-Jul-14 09:33N 29°56' W 090°00'0 0.0
2016-Jul-14 08:33N 29°56' W 090°00'0 0.0
2016-Jul-14 07:33N 29°56' W 090°00'0 0.0
2016-Jul-14 06:33N 29°56' W 090°00'  

Dump ship's entire track history